createdAt,value
2018-11-23T00:01:37.378Z,-20944.93
2018-11-23T00:04:05.705Z,-20948.66
2018-11-23T00:06:34.138Z,-20949.23
2018-11-23T00:09:02.629Z,-20940.63
2018-11-23T00:11:30.995Z,-20946.65
2018-11-23T00:13:59.452Z,-20944.79
2018-11-23T00:16:27.802Z,-20947.94
2018-11-23T00:18:56.129Z,-20959.54
2018-11-23T00:21:24.536Z,-20948.23
2018-11-23T00:23:52.879Z,-20951.23
2018-11-23T00:26:21.209Z,-20944.50
2018-11-23T00:28:49.769Z,-20939.77
2018-11-23T00:31:18.131Z,-20938.34
2018-11-23T00:33:46.508Z,-20942.93
2018-11-23T00:36:14.946Z,-20946.22
2018-11-23T00:38:43.404Z,-20950.80
2018-11-23T00:41:11.768Z,-20948.80
2018-11-23T00:43:41.074Z,-20936.47
2018-11-23T00:46:09.577Z,-20935.33
2018-11-23T00:48:37.908Z,-20948.66
2018-11-23T00:51:06.309Z,-20941.77
2018-11-23T00:53:34.635Z,-20947.36
2018-11-23T00:56:03.077Z,-20950.95
2018-11-23T00:58:31.410Z,-20945.21
2018-11-23T01:00:59.743Z,-20931.17
2018-11-23T01:03:28.092Z,-20943.21
2018-11-23T01:05:56.465Z,-20954.82
2018-11-23T01:08:24.865Z,-20951.52
2018-11-23T01:10:53.676Z,-20945.64
2018-11-23T01:13:22.170Z,-20933.75
2018-11-23T01:15:50.519Z,-20935.90
2018-11-23T01:18:18.979Z,-20919.99
2018-11-23T01:20:47.397Z,-20927.45
2018-11-23T01:23:15.808Z,-20924.00
2018-11-23T01:25:44.241Z,-20943.64
2018-11-23T01:28:12.648Z,-20942.64
2018-11-23T01:30:41.091Z,-20927.73
2018-11-23T01:33:09.490Z,-20929.02
2018-11-23T01:35:37.906Z,-20936.91
2018-11-23T01:38:06.239Z,-20936.33
2018-11-23T01:40:34.596Z,-20941.77
2018-11-23T01:43:02.959Z,-20938.20
2018-11-23T01:45:31.274Z,-20933.61
2018-11-23T01:47:59.610Z,-20930.88
2018-11-23T01:50:29.134Z,-20927.73
2018-11-23T01:52:57.712Z,-20936.91
2018-11-23T01:55:26.612Z,-20942.35
2018-11-23T01:57:55.026Z,-20942.06
2018-11-23T02:00:24.638Z,-20934.04
2018-11-23T02:02:54.068Z,-20907.65
2018-11-23T02:05:22.526Z,-20928.88
2018-11-23T02:07:50.885Z,-20917.27
2018-11-23T02:10:19.540Z,-20934.04
2018-11-23T02:12:47.920Z,-20918.98
2018-11-23T02:15:18.417Z,-20935.33
2018-11-23T02:17:47.199Z,-20918.13
2018-11-23T02:20:16.891Z,-20929.45
2018-11-23T02:22:45.176Z,-20915.25
2018-11-23T02:25:13.643Z,-20912.24
2018-11-23T02:27:42.022Z,-20906.94
2018-11-23T02:30:13.143Z,-20915.83
2018-11-23T02:32:41.804Z,-20923.29
2018-11-23T02:35:10.194Z,-20929.88
2018-11-23T02:37:38.533Z,-20934.04
2018-11-23T02:40:07.600Z,-20935.76
2018-11-23T02:42:35.965Z,-20926.30
2018-11-23T02:45:04.353Z,-20927.59
2018-11-23T02:47:32.734Z,-20927.30
2018-11-23T02:50:01.088Z,-20910.09
2018-11-23T02:52:29.497Z,-20905.93
2018-11-23T02:54:57.826Z,-20917.84
2018-11-23T02:57:26.213Z,-20914.25
2018-11-23T02:59:54.657Z,-20908.37
2018-11-23T03:02:23.094Z,-20899.05
2018-11-23T03:04:51.493Z,-20900.05
2018-11-23T03:07:20.011Z,-20906.65
2018-11-23T03:09:48.359Z,-20911.67
2018-11-23T03:12:16.713Z,-20915.55
2018-11-23T03:14:45.115Z,-20910.66
2018-11-23T03:17:13.495Z,-20906.50
2018-11-23T03:19:41.860Z,-20914.82
2018-11-23T03:22:10.161Z,-20927.02
2018-11-23T03:24:38.546Z,-20922.57
2018-11-23T03:27:06.870Z,-20931.17
2018-11-23T03:29:35.344Z,-20921.42
2018-11-23T03:32:03.822Z,-20924.87
2018-11-23T03:34:32.274Z,-20933.18
2018-11-23T03:37:00.713Z,-20913.68
2018-11-23T03:39:34.015Z,-20931.17
2018-11-23T03:41:57.697Z,-20927.45
2018-11-23T03:44:26.060Z,-20932.32
2018-11-23T03:46:54.445Z,-20934.61
2018-11-23T03:49:22.793Z,-20933.89
2018-11-23T03:51:51.167Z,-20932.32
2018-11-23T03:54:19.509Z,-20926.59
2018-11-23T03:56:47.913Z,-20907.94
2018-11-23T03:59:16.196Z,-20920.71
2018-11-23T04:01:44.558Z,-20912.24
2018-11-23T04:04:12.897Z,-20924.87
2018-11-23T04:06:41.176Z,-20927.30
2018-11-23T04:09:09.695Z,-20918.41
2018-11-23T04:11:38.201Z,-20910.66
2018-11-23T04:14:06.549Z,-20906.65
2018-11-23T04:16:35.013Z,-20916.69
2018-11-23T04:19:03.383Z,-20921.28
2018-11-23T04:21:31.693Z,-20911.10
2018-11-23T04:24:00.018Z,-20905.93
2018-11-23T04:26:28.357Z,-20929.60
2018-11-23T04:28:56.701Z,-20930.46
2018-11-23T04:31:25.045Z,-20922.43
2018-11-23T04:33:53.357Z,-20910.66
2018-11-23T04:36:21.666Z,-20911.39
2018-11-23T04:38:49.952Z,-20914.97
2018-11-23T04:41:18.309Z,-20916.55
2018-11-23T04:43:46.650Z,-20913.97
2018-11-23T04:46:14.974Z,-20923.86
2018-11-23T04:48:43.303Z,-20931.61
2018-11-23T04:51:11.692Z,-20914.25
2018-11-23T04:53:40.045Z,-20916.12
2018-11-23T04:56:08.460Z,-20928.59
2018-11-23T04:58:37.034Z,-20935.33
2018-11-23T05:01:05.515Z,-20912.24
2018-11-23T05:03:33.887Z,-20913.39
2018-11-23T05:06:02.270Z,-20912.82
2018-11-23T05:08:30.588Z,-20916.26
2018-11-23T05:10:59.001Z,-20914.82
2018-11-23T05:13:27.418Z,-20905.65
2018-11-23T05:15:55.808Z,-20905.50
2018-11-23T05:18:24.213Z,-20906.80
2018-11-23T05:20:52.562Z,-20906.22
2018-11-23T05:23:20.951Z,-20913.82
2018-11-23T05:25:49.313Z,-20915.83
2018-11-23T05:28:17.706Z,-20923.72
2018-11-23T05:30:46.030Z,-20919.13
2018-11-23T05:33:14.389Z,-20916.98
2018-11-23T05:35:42.714Z,-20918.27
2018-11-23T05:38:11.116Z,-20906.50
2018-11-23T05:40:39.768Z,-20912.96
2018-11-23T05:43:08.236Z,-20914.82
2018-11-23T05:45:36.660Z,-20910.09
2018-11-23T05:48:05.244Z,-20914.25
2018-11-23T05:50:33.663Z,-20924.14
2018-11-23T05:53:01.977Z,-20921.42
2018-11-23T05:55:30.307Z,-20914.97
2018-11-23T05:57:58.636Z,-20910.23
2018-11-23T06:00:28.520Z,-20922.29
2018-11-23T06:02:56.963Z,-20932.32
2018-11-23T06:05:25.377Z,-20915.83
2018-11-23T06:07:53.828Z,-20926.44
2018-11-23T06:10:22.640Z,-20924.58
2018-11-23T06:12:51.049Z,-20929.45
2018-11-23T06:15:21.568Z,-20933.46
2018-11-23T06:17:50.159Z,-20925.58
2018-11-23T06:20:20.517Z,-20922.43
2018-11-23T06:22:49.735Z,-20916.83
2018-11-23T06:25:23.217Z,-20929.88
2018-11-23T06:27:51.704Z,-20931.75
2018-11-23T06:30:20.118Z,-20934.32
2018-11-23T06:32:59.742Z,-20937.77
2018-11-23T06:35:28.105Z,-20931.75
2018-11-23T06:37:56.501Z,-20926.15
2018-11-23T06:40:24.900Z,-20929.74
2018-11-23T06:42:53.223Z,-20936.47
2018-11-23T06:45:21.760Z,-20940.63
2018-11-23T06:47:50.290Z,-20939.20
2018-11-23T06:50:18.682Z,-20938.77
2018-11-23T06:52:47.105Z,-20946.51
2018-11-23T06:55:15.533Z,-20941.06
2018-11-23T06:57:43.924Z,-20943.21
2018-11-23T07:00:15.534Z,-20934.47
2018-11-23T07:02:44.896Z,-20941.49
2018-11-23T07:05:13.660Z,-20938.20
2018-11-23T07:07:42.041Z,-20932.75
2018-11-23T07:10:11.068Z,-20940.92
2018-11-23T07:12:40.033Z,-20941.77
2018-11-23T07:15:09.864Z,-20942.93
2018-11-23T07:17:38.672Z,-20944.93
2018-11-23T07:20:08.916Z,-20937.77
2018-11-23T07:22:37.547Z,-20940.06
2018-11-23T07:25:06.652Z,-20940.06
2018-11-23T07:27:35.016Z,-20940.92
2018-11-23T07:30:03.549Z,-20948.37
2018-11-23T07:32:31.901Z,-20943.64
2018-11-23T07:35:00.253Z,-20933.61
2018-11-23T07:37:28.656Z,-20940.35
2018-11-23T07:40:08.240Z,-20934.32
2018-11-23T07:42:37.492Z,-20938.34
2018-11-23T07:45:06.165Z,-20939.34
2018-11-23T07:47:34.488Z,-20938.34
2018-11-23T07:50:02.856Z,-20929.88
2018-11-23T07:52:31.190Z,-20933.46
2018-11-23T07:54:59.592Z,-20938.05
2018-11-23T07:57:27.925Z,-20935.47
2018-11-23T07:59:56.408Z,-20941.06
2018-11-23T08:02:24.758Z,-20940.92
2018-11-23T08:04:53.309Z,-20940.63
2018-11-23T08:07:22.257Z,-20950.66
2018-11-23T08:09:50.688Z,-20944.07
2018-11-23T08:12:19.072Z,-20950.23
2018-11-23T08:14:47.476Z,-20950.37
2018-11-23T08:17:15.880Z,-20948.37
2018-11-23T08:19:47.389Z,-20956.39
2018-11-23T08:22:12.766Z,-20968.85
2018-11-23T08:24:41.081Z,-20965.98
2018-11-23T08:27:09.401Z,-20970.28
2018-11-23T08:29:37.773Z,-20979.86
2018-11-23T08:32:06.114Z,-20977.15
2018-11-23T08:34:34.411Z,-20984.16
2018-11-23T08:37:02.796Z,-20982.16
2018-11-23T08:39:31.105Z,-20985.45
2018-11-23T08:41:59.532Z,-20992.17
2018-11-23T08:44:27.925Z,-21007.61
2018-11-23T08:46:56.297Z,-21005.04
2018-11-23T08:49:24.872Z,-21006.18
2018-11-23T08:51:53.284Z,-21004.89
2018-11-23T08:54:21.584Z,-21010.04
2018-11-23T08:56:49.932Z,-21014.05
2018-11-23T08:59:18.410Z,-21008.90
2018-11-23T09:01:46.821Z,-21011.61
2018-11-23T09:04:15.117Z,-21012.76
2018-11-23T09:06:43.470Z,-21004.46
2018-11-23T09:09:12.262Z,-21003.61
2018-11-23T09:11:40.649Z,-21004.04
2018-11-23T09:14:09.976Z,-20999.46
2018-11-23T09:16:38.341Z,-21011.75
2018-11-23T09:19:06.780Z,-21014.90
2018-11-23T09:21:35.201Z,-21020.05
2018-11-23T09:24:03.537Z,-21014.19
2018-11-23T09:26:33.817Z,-21017.91
2018-11-23T09:29:10.533Z,-21033.91
2018-11-23T09:31:38.961Z,-21045.18
2018-11-23T09:34:07.364Z,-21050.04
2018-11-23T09:36:35.688Z,-21048.61
2018-11-23T09:39:05.281Z,-21058.89
2018-11-23T09:41:33.677Z,-21051.61
2018-11-23T09:44:02.002Z,-21059.60
2018-11-23T09:46:30.424Z,-21062.30
2018-11-23T09:48:58.809Z,-21067.59
2018-11-23T09:51:27.126Z,-21069.73
2018-11-23T09:53:55.826Z,-21070.58
2018-11-23T09:56:24.155Z,-21069.58
2018-11-23T09:58:52.516Z,-21054.32
2018-11-23T10:01:20.854Z,-21064.45
2018-11-23T10:03:49.268Z,-21064.16
2018-11-23T10:06:17.621Z,-21058.17
2018-11-23T10:08:46.002Z,-21061.03
2018-11-23T10:11:14.342Z,-21053.18
2018-11-23T10:13:42.761Z,-21044.61
2018-11-23T10:16:11.110Z,-21035.05
2018-11-23T10:18:39.446Z,-21046.32
2018-11-23T10:21:07.916Z,-21057.89
2018-11-23T10:23:36.271Z,-21060.31
2018-11-23T10:26:04.742Z,-21047.04
2018-11-23T10:28:33.325Z,-21054.60
2018-11-23T10:31:01.709Z,-21043.33
2018-11-23T10:33:30.069Z,-21054.89
2018-11-23T10:35:58.533Z,-21043.47
2018-11-23T10:38:26.920Z,-21047.61
2018-11-23T10:40:55.937Z,-21055.03
2018-11-23T10:43:24.222Z,-21055.74
2018-11-23T10:45:52.598Z,-21045.47
2018-11-23T10:48:20.912Z,-21049.61
2018-11-23T10:50:49.273Z,-21056.60
2018-11-23T10:53:17.643Z,-21056.17
2018-11-23T10:55:46.018Z,-21055.32
2018-11-23T10:58:14.302Z,-21051.75
2018-11-23T11:00:47.824Z,-21055.60
2018-11-23T11:03:33.496Z,-21057.46
2018-11-23T11:06:10.436Z,-21064.73
2018-11-23T11:08:39.224Z,-21056.89
2018-11-23T11:11:08.178Z,-21063.59
2018-11-23T11:13:36.336Z,-21057.46
2018-11-23T11:16:04.748Z,-21069.73
2018-11-23T11:18:33.051Z,-21064.45
2018-11-23T11:21:01.360Z,-21062.45
2018-11-23T11:23:29.744Z,-21075.57
2018-11-23T11:25:58.118Z,-21065.30
2018-11-23T11:28:26.507Z,-21089.83
2018-11-23T11:30:54.865Z,-21118.46
2018-11-23T11:33:23.289Z,-21108.21
2018-11-23T11:35:51.652Z,-21127.13
2018-11-23T11:38:20.013Z,-21145.92
2018-11-23T11:40:48.396Z,-21173.34
2018-11-23T11:43:16.837Z,-21157.57
2018-11-23T11:45:45.260Z,-21142.79
2018-11-23T11:48:13.652Z,-21162.40
2018-11-23T11:50:42.205Z,-21191.95
2018-11-23T11:53:10.581Z,-21224.57
2018-11-23T11:55:38.985Z,-21230.09
2018-11-23T11:58:07.264Z,-21227.54
2018-11-23T12:00:35.780Z,-21244.68
2018-11-23T12:03:04.127Z,-21246.24
2018-11-23T12:05:32.547Z,-21240.86
2018-11-23T12:08:00.931Z,-21258.70
2018-11-23T12:10:29.290Z,-21267.19
2018-11-23T12:12:57.707Z,-21257.99
2018-11-23T12:15:38.196Z,-21287.84
2018-11-23T12:18:18.446Z,-21290.80
2018-11-23T12:20:47.208Z,-21297.59
2018-11-23T12:23:16.730Z,-21294.48
2018-11-23T12:25:45.289Z,-21305.07
2018-11-23T12:28:13.608Z,-21288.96
2018-11-23T12:30:41.962Z,-21284.01
2018-11-23T12:33:10.330Z,-21312.55
2018-11-23T12:35:38.684Z,-21330.34
2018-11-23T12:38:07.072Z,-21323.00
2018-11-23T12:40:35.472Z,-21320.04
2018-11-23T12:43:03.891Z,-21295.75
2018-11-23T12:45:32.414Z,-21342.75
2018-11-23T12:48:00.960Z,-21344.58
2018-11-23T12:50:29.395Z,-21340.07
2018-11-23T12:53:01.559Z,-21308.04
2018-11-23T12:55:26.489Z,-21319.05
2018-11-23T12:57:55.049Z,-21319.90
2018-11-23T13:00:27.625Z,-21314.11
2018-11-23T13:02:58.528Z,-21314.95
2018-11-23T13:05:27.825Z,-21336.82
2018-11-23T13:07:57.187Z,-21344.72
2018-11-23T13:10:26.163Z,-21355.86
2018-11-23T13:12:55.380Z,-21312.69
2018-11-23T13:15:23.800Z,-21335.13
2018-11-23T13:17:52.211Z,-21327.80
2018-11-23T13:20:20.700Z,-21341.34
2018-11-23T13:22:49.087Z,-21351.49
2018-11-23T13:25:19.806Z,-21338.37
2018-11-23T13:27:51.722Z,-21336.54
2018-11-23T13:30:22.877Z,-21292.93
2018-11-23T13:32:51.393Z,-21278.50
2018-11-23T13:35:20.215Z,-21262.80
2018-11-23T13:37:48.561Z,-21246.66
2018-11-23T13:40:18.336Z,-21232.07
2018-11-23T13:42:47.135Z,-21200.18
2018-11-23T13:45:16.944Z,-21205.99
2018-11-23T13:47:45.315Z,-21172.20
2018-11-23T13:50:15.079Z,-21185.55
2018-11-23T13:52:44.533Z,-21157.15
2018-11-23T13:55:12.889Z,-21149.33
2018-11-23T13:57:41.389Z,-21151.74
2018-11-23T14:00:13.603Z,-21148.76
2018-11-23T14:02:42.178Z,-21146.48
2018-11-23T14:05:12.694Z,-21144.64
2018-11-23T14:07:41.473Z,-21140.80
2018-11-23T14:10:11.923Z,-21117.04
2018-11-23T14:12:40.544Z,-21106.50
2018-11-23T14:15:11.843Z,-21104.50
2018-11-23T14:17:40.450Z,-21104.36
2018-11-23T14:20:10.628Z,-21099.09
2018-11-23T14:22:39.055Z,-21089.26
2018-11-23T14:25:08.815Z,-21085.41
2018-11-23T14:27:37.388Z,-21091.11
2018-11-23T14:30:08.616Z,-21071.44
2018-11-23T14:32:37.154Z,-21086.41
2018-11-23T14:35:05.965Z,-21091.83
2018-11-23T14:37:34.377Z,-21091.54
2018-11-23T14:40:02.768Z,-21095.96
2018-11-23T14:42:31.179Z,-21093.39
2018-11-23T14:44:59.557Z,-21081.84
2018-11-23T14:47:28.011Z,-21082.27
2018-11-23T14:49:56.422Z,-21078.71
2018-11-23T14:52:24.827Z,-21079.56
2018-11-23T14:54:53.262Z,-21075.00
2018-11-23T14:57:21.765Z,-21063.87
2018-11-23T14:59:50.188Z,-21076.43
2018-11-23T15:02:18.539Z,-21075.57
2018-11-23T15:04:46.989Z,-21065.02
2018-11-23T15:07:15.398Z,-21065.45
2018-11-23T15:09:44.015Z,-21064.45
2018-11-23T15:12:12.325Z,-21059.03
2018-11-23T15:14:40.773Z,-21054.75
2018-11-23T15:17:09.092Z,-21063.87
2018-11-23T15:19:37.541Z,-21062.16
2018-11-23T15:22:06.015Z,-21064.59
2018-11-23T15:24:34.355Z,-21058.60
2018-11-23T15:27:03.148Z,-21056.46
2018-11-23T15:29:31.713Z,-21051.04
2018-11-23T15:32:00.086Z,-21045.18
2018-11-23T15:34:28.560Z,-21049.04
2018-11-23T15:36:56.906Z,-21046.18
2018-11-23T15:39:25.333Z,-21044.18
2018-11-23T15:41:53.680Z,-21044.04
2018-11-23T15:44:22.091Z,-21036.05
2018-11-23T15:46:50.580Z,-21024.19
2018-11-23T15:49:19.112Z,-21038.48
2018-11-23T15:51:47.503Z,-21042.47
2018-11-23T15:54:15.901Z,-21014.76
2018-11-23T15:56:44.652Z,-21024.33
2018-11-23T15:59:13.488Z,-21041.33
2018-11-23T16:01:41.883Z,-21035.19
2018-11-23T16:04:10.312Z,-21039.05
2018-11-23T16:06:38.751Z,-21036.19
2018-11-23T16:09:10.585Z,-21043.47
2018-11-23T16:11:39.104Z,-21026.91
2018-11-23T16:14:07.624Z,-21034.76
2018-11-23T16:16:36.214Z,-21028.48
2018-11-23T16:19:04.978Z,-21037.62
2018-11-23T16:21:33.293Z,-21037.62
2018-11-23T16:24:01.772Z,-21040.33
2018-11-23T16:26:30.315Z,-21020.05
2018-11-23T16:28:58.675Z,-21016.04
2018-11-23T16:31:27.017Z,-21029.91
2018-11-23T16:33:55.345Z,-21033.91
2018-11-23T16:36:23.723Z,-21025.91
2018-11-23T16:38:58.212Z,-21039.62
2018-11-23T16:41:33.678Z,-21044.61
2018-11-23T16:44:02.107Z,-21037.05
2018-11-23T16:46:30.505Z,-21037.33
2018-11-23T16:48:58.935Z,-21035.48
2018-11-23T16:51:27.340Z,-21035.48
2018-11-23T16:53:55.726Z,-21031.91
2018-11-23T16:56:24.145Z,-21024.62
2018-11-23T16:58:52.510Z,-21024.48
2018-11-23T17:01:20.924Z,-21031.05
2018-11-23T17:03:49.369Z,-21030.48
2018-11-23T17:06:17.844Z,-21029.19
2018-11-23T17:08:46.271Z,-21033.05
2018-11-23T17:11:14.672Z,-21037.62
2018-11-23T17:13:43.024Z,-21032.62
2018-11-23T17:16:12.212Z,-21023.62
2018-11-23T17:18:40.699Z,-21022.76
2018-11-23T17:21:09.161Z,-21032.77
2018-11-23T17:23:37.588Z,-21026.48
2018-11-23T17:26:06.005Z,-21024.91
2018-11-23T17:28:34.384Z,-21034.19
2018-11-23T17:31:02.697Z,-21026.62
2018-11-23T17:33:31.227Z,-21028.48
2018-11-23T17:35:59.583Z,-21012.61
2018-11-23T17:38:28.102Z,-21020.48
2018-11-23T17:40:56.889Z,-21028.62
2018-11-23T17:43:25.306Z,-21027.91
2018-11-23T17:45:53.797Z,-21032.48
2018-11-23T17:48:22.321Z,-21027.62
2018-11-23T17:50:50.750Z,-21020.77
2018-11-23T17:53:19.153Z,-21014.19
2018-11-23T17:55:47.502Z,-21025.33
2018-11-23T17:58:16.069Z,-21025.91
2018-11-23T18:00:44.435Z,-21037.33
2018-11-23T18:03:12.850Z,-21032.05
2018-11-23T18:05:42.250Z,-21018.05
2018-11-23T18:08:10.705Z,-21038.90
2018-11-23T18:10:45.551Z,-21042.19
2018-11-23T18:13:14.062Z,-21039.05
2018-11-23T18:15:42.491Z,-21030.76
2018-11-23T18:18:10.848Z,-21036.62
2018-11-23T18:20:39.188Z,-21035.05
2018-11-23T18:23:07.586Z,-21034.76
2018-11-23T18:25:38.645Z,-21038.48
2018-11-23T18:28:07.164Z,-21033.91
2018-11-23T18:30:35.700Z,-21036.05
2018-11-23T18:33:05.579Z,-21038.48
2018-11-23T18:35:34.175Z,-21027.05
2018-11-23T18:38:02.665Z,-21035.48
2018-11-23T18:40:37.123Z,-21035.76
2018-11-23T18:42:59.554Z,-21040.76
2018-11-23T18:45:27.992Z,-21026.76
2018-11-23T18:47:56.382Z,-21034.19
2018-11-23T18:50:24.745Z,-21034.76
2018-11-23T18:52:53.140Z,-21038.33
2018-11-23T18:55:21.576Z,-21036.48
2018-11-23T18:57:50.241Z,-21032.05
2018-11-23T19:00:18.778Z,-21046.75
2018-11-23T19:02:47.826Z,-21050.04
2018-11-23T19:05:18.381Z,-21036.19
2018-11-23T19:07:47.946Z,-21038.90
2018-11-23T19:10:16.346Z,-21042.04
2018-11-23T19:12:44.790Z,-21039.76
2018-11-23T19:15:14.505Z,-21038.76
2018-11-23T19:17:44.890Z,-21038.76
2018-11-23T19:20:20.324Z,-21045.90
2018-11-23T19:22:53.225Z,-21036.62
2018-11-23T19:25:21.698Z,-21042.19
2018-11-23T19:27:50.463Z,-21041.19
2018-11-23T19:30:27.708Z,-21043.90
2018-11-23T19:32:48.453Z,-21044.47
2018-11-23T19:35:16.865Z,-21031.19
2018-11-23T19:37:45.252Z,-21043.75
2018-11-23T19:40:15.088Z,-21037.05
2018-11-23T19:42:44.167Z,-21039.05
2018-11-23T19:45:13.712Z,-21039.47
2018-11-23T19:47:42.161Z,-21038.90
2018-11-23T19:50:13.292Z,-21047.32
2018-11-23T19:52:41.792Z,-21045.61
2018-11-23T19:55:11.144Z,-21050.61
2018-11-23T19:57:39.521Z,-21049.04
2018-11-23T20:00:14.570Z,-21047.75
2018-11-23T20:02:43.076Z,-21045.90
2018-11-23T20:05:11.569Z,-21040.90
2018-11-23T20:07:40.022Z,-21043.47
2018-11-23T20:10:13.774Z,-21048.75
2018-11-23T20:12:42.286Z,-21052.46
2018-11-23T20:15:13.354Z,-21049.04
2018-11-23T20:17:41.752Z,-21048.89
2018-11-23T20:20:11.430Z,-21046.32
2018-11-23T20:22:39.889Z,-21045.61
2018-11-23T20:25:10.092Z,-21044.33
2018-11-23T20:27:38.593Z,-21044.33
2018-11-23T20:30:10.394Z,-21046.75
2018-11-23T20:32:38.916Z,-21044.61
2018-11-23T20:35:08.768Z,-21042.04
2018-11-23T20:37:37.193Z,-21044.75
2018-11-23T20:40:09.559Z,-21044.90
2018-11-23T20:42:38.023Z,-21042.33
2018-11-23T20:45:08.072Z,-21036.19
2018-11-23T20:47:36.718Z,-21034.91
2018-11-23T20:50:06.612Z,-21039.62
2018-11-23T20:52:35.292Z,-21045.90
2018-11-23T20:55:03.645Z,-21047.61
2018-11-23T20:57:32.034Z,-21039.76
2018-11-23T21:00:00.635Z,-21026.33
2018-11-23T21:02:29.101Z,-21041.05
2018-11-23T21:04:57.534Z,-21039.33
2018-11-23T21:07:26.214Z,-21045.61
2018-11-23T21:09:54.615Z,-21040.47
2018-11-23T21:12:22.984Z,-21043.04
2018-11-23T21:14:51.409Z,-21031.91
2018-11-23T21:17:19.776Z,-21037.62
2018-11-23T21:19:48.156Z,-21041.19
2018-11-23T21:22:16.716Z,-21040.05
2018-11-23T21:24:45.157Z,-21041.05
2018-11-23T21:27:13.480Z,-21045.61
2018-11-23T21:29:41.874Z,-21043.33
2018-11-23T21:32:10.296Z,-21038.19
2018-11-23T21:34:38.631Z,-21047.04
2018-11-23T21:37:07.096Z,-21046.89
2018-11-23T21:39:35.569Z,-21044.18
2018-11-23T21:42:03.956Z,-21044.33
2018-11-23T21:44:32.333Z,-21049.04
2018-11-23T21:47:00.718Z,-21038.05
2018-11-23T21:49:29.060Z,-21024.19
2018-11-23T21:51:57.415Z,-21027.05
2018-11-23T21:54:25.839Z,-21037.90
2018-11-23T21:56:54.180Z,-21037.62
2018-11-23T21:59:22.533Z,-21027.34
2018-11-23T22:01:50.842Z,-21041.62
2018-11-23T22:04:19.281Z,-21042.33
2018-11-23T22:06:47.637Z,-21035.48
2018-11-23T22:09:16.132Z,-21039.05
2018-11-23T22:11:44.515Z,-21047.89
2018-11-23T22:14:12.837Z,-21047.61
2018-11-23T22:16:41.234Z,-21044.90
2018-11-23T22:19:09.766Z,-21039.76
2018-11-23T22:21:38.106Z,-21042.47
2018-11-23T22:24:07.493Z,-21036.19
2018-11-23T22:26:35.825Z,-21040.76
2018-11-23T22:29:04.217Z,-21044.18
2018-11-23T22:31:32.734Z,-21038.76
2018-11-23T22:34:01.057Z,-21048.89
2018-11-23T22:36:29.434Z,-21049.75
2018-11-23T22:38:57.762Z,-21046.46
2018-11-23T22:41:26.179Z,-21041.62
2018-11-23T22:43:54.497Z,-21047.04
2018-11-23T22:46:22.892Z,-21044.18
2018-11-23T22:48:51.285Z,-21047.04
2018-11-23T22:51:19.610Z,-21051.75
2018-11-23T22:53:48.089Z,-21034.48
2018-11-23T22:56:16.469Z,-21043.18
2018-11-23T22:58:44.936Z,-21042.19
2018-11-23T23:01:13.277Z,-21050.32
2018-11-23T23:03:41.697Z,-21042.90
2018-11-23T23:06:10.090Z,-21046.75
2018-11-23T23:08:38.453Z,-21045.47
2018-11-23T23:11:06.865Z,-21047.04
2018-11-23T23:13:35.317Z,-21054.46
2018-11-23T23:16:03.700Z,-21046.18
2018-11-23T23:18:32.024Z,-21043.18
2018-11-23T23:21:00.417Z,-21043.47
2018-11-23T23:23:28.689Z,-21041.05
2018-11-23T23:25:56.990Z,-21044.47
2018-11-23T23:28:25.395Z,-21043.33
2018-11-23T23:30:53.764Z,-21044.33
2018-11-23T23:33:22.125Z,-21040.90
2018-11-23T23:35:50.509Z,-21035.91
2018-11-23T23:38:18.864Z,-21043.47
2018-11-23T23:40:47.302Z,-21044.75
2018-11-23T23:43:15.675Z,-21044.04
2018-11-23T23:45:44.059Z,-21044.61
2018-11-23T23:48:12.491Z,-21045.18
2018-11-23T23:50:40.834Z,-21047.04
2018-11-23T23:53:09.176Z,-21049.32
2018-11-23T23:55:37.587Z,-21047.04
2018-11-23T23:58:06.099Z,-21046.46
